Time;durP1;ratioP1;P1;durP2;ratioP2;P2;SDS_P1;SDS_P2;PMS_P1;PMS_P2;Temp;Humidity;BMP_temperature;BMP_pressure;BME280_temperature;BME280_humidity;BME280_pressure;Samples;Min_cycle;Max_cycle;Signal;HPM_P1;HPM_P2
2023/08/24 00:02:32;;;;;;;9.10;8.10;;;;;;;16.08;81.62;99044.96;226915;1263;22574;-75
2023/08/24 00:07:34;;;;;;;8.80;8.00;;;;;;;16.04;81.63;99040.10;226880;1270;22533;-75
2023/08/24 00:12:36;;;;;;;9.30;8.40;;;;;;;16.00;82.03;99042.74;226937;1256;22538;-75
2023/08/24 00:17:38;;;;;;;10.60;8.20;;;;;;;15.94;82.16;99038.34;226951;1272;22534;-75
2023/08/24 00:22:41;;;;;;;9.20;8.20;;;;;;;15.90;82.29;99036.27;226944;1272;22534;-75
2023/08/24 00:27:43;;;;;;;11.70;8.00;;;;;;;15.85;82.19;99034.73;226905;1272;22531;-76
2023/08/24 00:32:46;;;;;;;9.60;8.40;;;;;;;15.80;82.29;99039.30;226844;1272;24183;-75
2023/08/24 00:37:48;;;;;;;9.60;8.30;;;;;;;15.75;82.61;99033.58;226990;1272;22644;-75
2023/08/24 00:42:50;;;;;;;8.70;7.80;;;;;;;15.72;82.64;99035.46;227011;1271;22517;-75
2023/08/24 00:47:53;;;;;;;10.00;8.50;;;;;;;15.67;82.71;99037.54;226939;1272;22548;-76
2023/08/24 00:52:55;;;;;;;9.90;8.60;;;;;;;15.63;82.73;99039.69;227015;1256;22536;-75
2023/08/24 00:57:59;;;;;;;8.90;8.00;;;;;;;15.58;82.80;99039.52;227003;1272;22553;-75
2023/08/24 01:03:01;;;;;;;12.90;8.20;;;;;;;15.53;82.78;99035.05;226811;1269;22527;-75
2023/08/24 01:08:03;;;;;;;10.20;8.40;;;;;;;15.47;82.76;99034.98;226876;1272;22540;-75
2023/08/24 01:13:10;;;;;;;11.80;9.80;;;;;;;15.41;82.87;99043.96;226844;1269;24183;-75
2023/08/24 01:18:16;;;;;;;14.00;11.50;;;;;;;15.36;83.23;99046.57;226860;1269;22535;-75
2023/08/24 01:23:32;;;;;;;13.40;10.20;;;;;;;15.30;83.20;99044.50;226827;1270;22541;-75
2023/08/24 01:28:35;;;;;;;12.30;11.00;;;;;;;15.26;83.21;99041.20;227010;1269;22534;-75
2023/08/24 01:33:37;;;;;;;14.10;11.50;;;;;;;15.20;83.36;99040.16;227016;1270;22562;-75
2023/08/24 01:38:39;;;;;;;14.70;11.70;;;;;;;15.16;83.51;99037.59;226890;1269;152201;-75
2023/08/24 01:43:44;;;;;;;14.00;10.60;;;;;;;15.12;83.67;99035.34;226830;1267;22536;-75
2023/08/24 01:48:49;;;;;;;12.00;10.80;;;;;;;15.06;83.63;99033.42;226935;1270;22517;-75
2023/08/24 01:53:53;;;;;;;13.40;10.00;;;;;;;15.01;83.54;99027.58;226949;1269;22526;-76
2023/08/24 01:58:54;;;;;;;12.10;9.20;;;;;;;14.97;83.75;99028.52;226950;1272;22523;-75
2023/08/24 02:03:56;;;;;;;8.70;7.90;;;;;;;14.94;83.85;99029.50;226924;1267;24202;-75
2023/08/24 02:08:58;;;;;;;9.00;8.00;;;;;;;14.90;84.27;99028.98;226803;1268;22526;-75
2023/08/24 02:14:00;;;;;;;13.60;10.80;;;;;;;14.87;84.22;99031.30;226864;1270;25413;-75
2023/08/24 02:19:02;;;;;;;13.50;11.30;;;;;;;14.81;84.23;99034.01;226891;1270;22544;-76
2023/08/24 02:24:05;;;;;;;15.50;11.70;;;;;;;14.75;84.08;99029.88;226889;1270;25303;-75
2023/08/24 02:29:07;;;;;;;11.70;10.50;;;;;;;14.68;84.24;99026.26;226838;1263;22538;-76
2023/08/24 02:34:09;;;;;;;12.00;10.40;;;;;;;14.60;83.98;99027.73;226823;1269;22545;-75
2023/08/24 02:39:11;;;;;;;14.90;13.30;;;;;;;14.52;84.11;99029.77;226811;1267;22534;-75
2023/08/24 02:44:13;;;;;;;14.70;13.20;;;;;;;14.45;84.45;99029.19;226837;1269;22546;-75
2023/08/24 02:49:14;;;;;;;18.40;16.60;;;;;;;14.40;84.45;99027.74;226965;1273;22541;-75
2023/08/24 02:54:18;;;;;;;15.00;13.60;;;;;;;14.36;84.49;99028.24;226844;1269;22526;-75
2023/08/24 02:59:23;;;;;;;18.10;16.30;;;;;;;14.32;84.84;99028.16;226913;1268;25414;-75
2023/08/24 03:04:25;;;;;;;28.70;25.80;;;;;;;14.24;84.87;99027.71;226852;1272;22634;-75
2023/08/24 03:09:28;;;;;;;28.70;25.60;;;;;;;14.18;85.00;99034.58;226880;1269;25337;-76
2023/08/24 03:14:29;;;;;;;24.70;22.20;;;;;;;14.13;85.11;99038.41;226901;1270;22526;-75
2023/08/24 03:19:31;;;;;;;25.40;22.90;;;;;;;14.09;85.58;99034.17;226807;1270;22530;-76
2023/08/24 03:24:34;;;;;;;23.60;21.10;;;;;;;14.05;85.47;99032.90;226856;1272;22526;-75
2023/08/24 03:29:35;;;;;;;22.50;20.30;;;;;;;14.03;85.48;99031.44;226883;1272;22527;-76
2023/08/24 03:34:37;;;;;;;19.80;18.00;;;;;;;14.02;85.67;99027.17;226861;1270;22541;-75
2023/08/24 03:39:41;;;;;;;19.50;17.50;;;;;;;14.02;85.73;99025.05;226801;1273;24228;-75
2023/08/24 03:44:43;;;;;;;19.90;17.80;;;;;;;14.01;85.67;99035.52;226910;1272;22541;-75
2023/08/24 03:49:44;;;;;;;20.00;17.80;;;;;;;13.99;85.83;99039.93;226803;1270;22526;-75
2023/08/24 03:54:46;;;;;;;18.40;16.60;;;;;;;13.97;85.69;99041.30;226873;1272;22620;-75
2023/08/24 03:59:49;;;;;;;14.50;13.00;;;;;;;13.94;85.89;99043.98;226893;1271;22531;-75
2023/08/24 04:04:52;;;;;;;14.80;13.20;;;;;;;13.95;86.01;99045.97;226913;1272;22553;-75
2023/08/24 04:09:54;;;;;;;14.60;13.00;;;;;;;13.96;86.03;99043.07;226957;1271;24209;-75
2023/08/24 04:14:57;;;;;;;14.10;12.70;;;;;;;13.97;85.94;99050.83;226755;1269;22568;-76
2023/08/24 04:19:59;;;;;;;13.50;11.90;;;;;;;14.01;85.79;99049.70;226829;1272;22538;-76
2023/08/24 04:25:01;;;;;;;13.50;12.10;;;;;;;14.04;86.04;99048.89;226861;1269;22534;-76
2023/08/24 04:30:03;;;;;;;12.60;11.00;;;;;;;14.10;85.96;99050.92;226770;1272;22544;-75
2023/08/24 04:35:07;;;;;;;12.00;9.20;;;;;;;14.16;86.05;99051.21;226851;1272;22523;-76
2023/08/24 04:40:11;;;;;;;13.40;9.60;;;;;;;14.22;85.95;99042.97;226830;1269;22510;-75
2023/08/24 04:45:14;;;;;;;11.30;9.50;;;;;;;14.29;85.95;99043.24;226834;1272;22984;-75
2023/08/24 04:50:16;;;;;;;12.20;10.20;;;;;;;14.40;86.32;99042.04;226814;1272;22536;-75
2023/08/24 04:55:18;;;;;;;11.80;9.60;;;;;;;14.56;86.40;99036.66;226853;1272;22529;-75
2023/08/24 05:00:20;;;;;;;10.30;9.30;;;;;;;14.71;86.36;99042.73;226815;1269;22558;-75
2023/08/24 05:05:22;;;;;;;12.10;9.90;;;;;;;14.87;86.29;99045.20;226820;1272;22523;-75
2023/08/24 05:10:24;;;;;;;11.80;10.60;;;;;;;15.03;86.05;99051.04;226788;1272;22557;-74
2023/08/24 05:15:27;;;;;;;15.80;11.10;;;;;;;15.19;86.13;99045.29;226810;1269;26250;-74
2023/08/24 05:20:29;;;;;;;14.30;10.50;;;;;;;15.34;85.77;99053.12;226832;1272;22518;-75
2023/08/24 05:25:31;;;;;;;13.10;10.60;;;;;;;15.50;85.56;99059.86;226766;1272;22552;-75
2023/08/24 05:30:32;;;;;;;11.00;9.90;;;;;;;15.67;85.67;99061.50;226821;1269;25929;-74
2023/08/24 05:35:34;;;;;;;15.40;11.20;;;;;;;15.83;85.29;99058.42;226775;1269;22534;-74
2023/08/24 05:40:37;;;;;;;13.30;11.40;;;;;;;15.97;85.05;99063.70;226644;1256;22541;-74
2023/08/24 05:45:40;;;;;;;16.10;12.00;;;;;;;16.13;84.99;99066.42;226675;1269;25230;-75
2023/08/24 05:50:46;;;;;;;13.10;11.70;;;;;;;16.25;84.57;99065.21;226479;1267;22528;-73
2023/08/24 05:55:48;;;;;;;16.20;11.80;;;;;;;16.40;84.38;99068.95;226656;1257;24202;-74
2023/08/24 06:00:56;;;;;;;18.00;13.20;;;;;;;16.58;84.46;99059.80;226552;1272;22676;-76
2023/08/24 06:06:03;;;;;;;14.20;12.80;;;;;;;16.80;84.32;99061.21;226146;1257;24280;-73
2023/08/24 06:11:05;;;;;;;13.90;11.40;;;;;;;17.03;83.90;99061.66;226376;1253;22514;-73
2023/08/24 06:16:07;;;;;;;13.00;11.80;;;;;;;17.24;83.14;99067.42;226555;1257;22528;-73
2023/08/24 06:21:09;;;;;;;12.90;11.10;;;;;;;17.44;82.41;99067.74;226376;1271;22572;-73
2023/08/24 06:26:11;;;;;;;12.60;11.20;;;;;;;17.67;82.35;99074.86;226305;1269;22970;-73
2023/08/24 06:31:14;;;;;;;12.50;10.80;;;;;;;17.90;82.01;99070.71;226313;1254;24826;-73
2023/08/24 06:36:16;;;;;;;12.30;10.50;;;;;;;18.10;81.76;99074.55;226200;1251;22966;-74
2023/08/24 06:41:19;;;;;;;11.30;10.10;;;;;;;18.29;81.34;99073.90;226326;1271;23209;-80
2023/08/24 06:46:22;;;;;;;10.80;9.70;;;;;;;18.51;81.18;99064.11;226185;1269;22637;-75
2023/08/24 06:51:25;;;;;;;13.40;8.70;;;;;;;18.75;81.03;99062.05;226376;1273;22533;-75
2023/08/24 06:56:27;;;;;;;12.00;9.70;;;;;;;18.97;80.25;99063.60;226474;1272;22542;-75
2023/08/24 07:01:31;;;;;;;12.20;9.20;;;;;;;19.16;80.00;99063.90;226441;1273;23621;-75
2023/08/24 07:06:34;;;;;;;11.40;9.90;;;;;;;19.35;79.43;99066.92;226451;1270;22526;-75
2023/08/24 07:11:36;;;;;;;11.60;10.10;;;;;;;19.55;79.14;99063.57;226695;1272;22590;-75
2023/08/24 07:16:38;;;;;;;13.20;9.70;;;;;;;19.72;78.54;99061.77;226471;1257;22526;-75
2023/08/24 07:21:40;;;;;;;15.90;13.80;;;;;;;19.95;78.56;99064.81;226555;1269;22580;-75
2023/08/24 07:26:42;;;;;;;10.40;9.30;;;;;;;20.20;78.17;99065.52;226509;1263;22538;-75
2023/08/24 07:31:44;;;;;;;14.00;9.40;;;;;;;20.43;77.29;99073.03;226532;1267;22538;-74
2023/08/24 07:36:48;;;;;;;11.00;8.70;;;;;;;20.69;77.18;99073.16;226524;1270;22538;-74
2023/08/24 07:41:50;;;;;;;12.20;8.30;;;;;;;20.97;77.15;99077.05;226509;1256;23012;-74
2023/08/24 07:46:52;;;;;;;13.30;7.90;;;;;;;21.25;76.60;99078.04;226459;1267;25329;-72
2023/08/24 07:51:55;;;;;;;9.00;7.20;;;;;;;21.45;75.21;99074.10;226457;1267;22896;-73
2023/08/24 07:56:57;;;;;;;9.10;6.80;;;;;;;21.64;74.72;99078.39;226361;1272;22517;-74
2023/08/24 08:01:59;;;;;;;7.00;6.30;;;;;;;21.84;73.74;99076.09;226295;1253;22516;-73
2023/08/24 08:07:01;;;;;;;9.90;6.20;;;;;;;22.00;73.15;99074.33;226241;1269;23014;-73
2023/08/24 08:12:03;;;;;;;8.30;6.20;;;;;;;22.19;72.76;99080.80;226302;1269;22538;-73
2023/08/24 08:17:05;;;;;;;6.50;5.60;;;;;;;22.38;72.06;99078.70;226500;1266;22541;-73
2023/08/24 08:22:07;;;;;;;7.50;6.20;;;;;;;22.60;71.66;99078.48;226449;1270;22578;-75
2023/08/24 08:27:11;;;;;;;8.10;5.90;;;;;;;22.76;70.50;99075.70;226527;1256;22531;-73
2023/08/24 08:32:13;;;;;;;6.00;5.20;;;;;;;22.87;69.99;99078.64;226343;1262;24199;-74
2023/08/24 08:37:15;;;;;;;7.40;5.20;;;;;;;23.08;69.60;99069.81;226441;1254;22531;-75
2023/08/24 08:42:17;;;;;;;7.70;5.30;;;;;;;23.27;68.87;99072.11;226471;1269;22562;-74
2023/08/24 08:47:20;;;;;;;8.00;5.80;;;;;;;23.46;67.66;99074.66;226482;1254;22545;-74
2023/08/24 08:52:22;;;;;;;8.60;5.10;;;;;;;23.64;67.03;99077.18;226493;1263;22760;-74
2023/08/24 08:57:25;;;;;;;9.90;5.40;;;;;;;23.79;66.56;99074.67;226524;1269;24190;-74
2023/08/24 09:02:30;;;;;;;5.60;5.10;;;;;;;23.94;65.81;99071.31;226417;1269;22540;-74
2023/08/24 09:07:35;;;;;;;6.50;4.90;;;;;;;24.07;64.94;99070.13;226568;1257;22523;-74
2023/08/24 09:12:37;;;;;;;9.90;5.50;;;;;;;24.21;64.93;99072.65;226461;1272;22535;-75
2023/08/24 09:17:44;;;;;;;5.70;4.70;;;;;;;24.42;64.81;99071.90;226544;1272;23934;-75
2023/08/24 09:22:46;;;;;;;5.60;4.90;;;;;;;24.57;63.71;99067.20;226608;1253;22575;-75
2023/08/24 09:27:56;;;;;;;8.80;4.90;;;;;;;24.69;63.26;99058.73;226443;1263;22545;-77
2023/08/24 09:33:11;;;;;;;5.70;5.10;;;;;;;24.86;62.57;99055.18;226422;1270;22549;-75
2023/08/24 09:38:20;;;;;;;5.50;4.90;;;;;;;25.03;62.29;99055.49;226535;1250;22545;-75
2023/08/24 09:43:23;;;;;;;5.00;4.50;;;;;;;25.20;61.96;99049.80;226485;1257;22537;-75
2023/08/24 09:48:25;;;;;;;6.70;4.50;;;;;;;25.27;60.80;99046.91;226414;1270;22545;-76
2023/08/24 09:53:36;;;;;;;5.50;4.40;;;;;;;25.34;60.27;99044.77;226575;1266;22534;-76
2023/08/24 09:58:37;;;;;;;7.20;4.40;;;;;;;25.47;59.69;99041.89;226512;1251;22995;-76
2023/08/24 10:03:40;;;;;;;4.90;4.30;;;;;;;25.58;59.34;99041.23;226433;1251;22527;-75
2023/08/24 10:08:47;;;;;;;3.90;3.60;;;;;;;25.73;59.17;99039.56;226445;1264;22537;-75
2023/08/24 10:14:00;;;;;;;5.70;4.30;;;;;;;25.88;58.50;99042.10;226452;1263;22534;-76
2023/08/24 10:19:03;;;;;;;6.10;3.40;;;;;;;25.98;57.87;99033.42;226432;1272;22591;-76
2023/08/24 10:24:06;;;;;;;4.10;3.60;;;;;;;26.06;56.46;99024.16;226446;1268;22584;-75
2023/08/24 10:29:08;;;;;;;4.50;4.10;;;;;;;26.09;56.10;99021.97;226568;1254;22574;-75
2023/08/24 10:34:11;;;;;;;5.40;3.80;;;;;;;26.22;56.33;99029.55;226414;1268;24140;-75
2023/08/24 10:39:14;;;;;;;4.80;3.60;;;;;;;26.28;55.44;99023.42;226443;1270;22538;-75
2023/08/24 10:44:33;;;;;;;4.30;3.90;;;;;;;26.35;55.14;99023.02;226505;1260;22582;-74
2023/08/24 10:49:35;;;;;;;4.70;4.20;;;;;;;26.48;54.92;99020.51;226339;1272;23579;-75
2023/08/24 10:54:43;;;;;;;5.10;4.30;;;;;;;26.57;54.26;99015.59;226354;1272;22576;-75
2023/08/24 10:59:45;;;;;;;4.60;3.70;;;;;;;26.60;54.25;98998.52;226509;1270;25364;-74
2023/08/24 11:05:16;;;;;;;5.20;4.00;;;;;;;26.69;54.31;98997.27;226458;1273;22530;-73
2023/08/24 11:10:19;;;;;;;3.40;3.20;;;;;;;26.76;53.53;98993.05;226378;1273;22533;-74
2023/08/24 11:15:31;;;;;;;4.10;3.30;;;;;;;26.84;52.94;98988.58;226471;1270;22556;-74
2023/08/24 11:20:33;;;;;;;3.90;3.60;;;;;;;26.88;52.70;98982.11;226482;1273;22517;-73
2023/08/24 11:25:36;;;;;;;7.20;4.00;;;;;;;26.91;52.71;98974.11;226418;1267;22529;-74
2023/08/24 11:30:38;;;;;;;4.90;3.80;;;;;;;27.01;52.83;98972.45;226562;1270;22520;-74
2023/08/24 11:35:43;;;;;;;5.30;3.90;;;;;;;27.11;52.13;98969.77;226489;1254;22538;-75
2023/08/24 11:40:45;;;;;;;4.00;3.30;;;;;;;27.15;52.22;98963.80;226551;1272;22537;-74
2023/08/24 11:45:47;;;;;;;6.00;4.10;;;;;;;27.28;52.19;98956.66;226610;1272;22627;-75
2023/08/24 11:50:49;;;;;;;3.90;3.60;;;;;;;27.39;51.63;98947.78;226665;1273;22533;-75
2023/08/24 11:55:54;;;;;;;4.30;3.60;;;;;;;27.45;51.88;98944.70;226764;1272;22567;-75
2023/08/24 12:01:11;;;;;;;3.90;3.40;;;;;;;27.52;51.17;98943.83;226611;1270;22589;-75
2023/08/24 12:06:16;;;;;;;3.90;3.60;;;;;;;27.55;51.37;98942.66;226735;1272;25415;-75
2023/08/24 12:11:20;;;;;;;4.50;3.70;;;;;;;27.58;51.19;98937.21;226744;1267;22542;-76
2023/08/24 12:16:23;;;;;;;3.80;3.50;;;;;;;27.65;51.32;98935.73;226678;1270;22565;-74
2023/08/24 12:21:26;;;;;;;4.90;3.60;;;;;;;27.72;51.10;98930.68;226715;1270;24432;-74
2023/08/24 12:26:29;;;;;;;4.30;3.80;;;;;;;27.84;51.36;98925.16;226622;1267;22569;-80
2023/08/24 12:31:36;;;;;;;4.80;3.90;;;;;;;27.92;51.11;98917.96;226567;1258;22588;-75
2023/08/24 12:36:39;;;;;;;4.10;3.70;;;;;;;27.93;50.42;98908.65;226662;1272;22553;-74
2023/08/24 12:41:41;;;;;;;4.40;3.50;;;;;;;27.93;50.77;98908.10;226643;1270;25262;-74
2023/08/24 12:46:43;;;;;;;5.40;4.00;;;;;;;27.97;50.53;98909.23;226499;1270;22549;-75
2023/08/24 12:51:45;;;;;;;4.40;4.00;;;;;;;27.98;50.70;98901.50;226590;1267;25360;-75
2023/08/24 12:56:47;;;;;;;4.60;4.20;;;;;;;28.05;50.83;98898.42;226583;1272;22586;-75
2023/08/24 13:01:49;;;;;;;4.40;4.00;;;;;;;28.14;50.45;98890.61;226587;1272;22528;-75
2023/08/24 13:06:51;;;;;;;4.60;3.70;;;;;;;28.15;50.21;98876.05;226474;1261;22637;-75
2023/08/24 13:11:52;;;;;;;4.40;3.90;;;;;;;28.21;50.55;98864.20;226539;1260;22602;-75
2023/08/24 13:16:54;;;;;;;4.60;4.20;;;;;;;28.39;50.51;98857.66;226490;1272;22534;-75
2023/08/24 13:21:56;;;;;;;5.70;3.80;;;;;;;28.53;50.06;98855.19;226630;1261;22545;-74
2023/08/24 13:26:58;;;;;;;3.90;3.60;;;;;;;28.61;49.47;98854.06;226511;1267;23835;-74
2023/08/24 13:32:00;;;;;;;4.20;3.60;;;;;;;28.64;49.62;98846.27;226422;1270;22516;-74
2023/08/24 13:37:03;;;;;;;4.00;3.70;;;;;;;28.61;49.10;98842.73;226372;1266;129481;-74
2023/08/24 13:42:06;;;;;;;5.40;3.80;;;;;;;28.54;49.17;98843.52;226359;1254;22560;-74
2023/08/24 13:47:08;;;;;;;4.20;3.80;;;;;;;28.63;49.62;98840.61;226395;1269;22594;-73
2023/08/24 13:52:10;;;;;;;4.40;3.90;;;;;;;28.79;49.67;98832.85;226497;1254;22540;-74
2023/08/24 13:57:12;;;;;;;9.30;4.50;;;;;;;28.92;49.05;98827.52;226614;1270;22610;-74
2023/08/24 14:02:14;;;;;;;7.30;3.90;;;;;;;28.94;48.56;98820.42;226431;1267;22579;-76
2023/08/24 14:07:16;;;;;;;4.10;3.70;;;;;;;28.91;48.69;98820.34;226670;1272;22580;-76
2023/08/24 14:12:18;;;;;;;9.80;4.80;;;;;;;29.08;48.85;98821.72;226771;1272;22723;-76
2023/08/24 14:17:20;;;;;;;5.00;3.90;;;;;;;29.23;48.44;98825.20;226708;1266;22549;-76
2023/08/24 14:22:22;;;;;;;4.00;3.70;;;;;;;29.43;48.49;98819.97;226870;1270;22535;-76
2023/08/24 14:27:24;;;;;;;4.40;3.80;;;;;;;29.68;48.20;98822.27;226932;1270;22722;-76
2023/08/24 14:32:26;;;;;;;4.50;4.20;;;;;;;29.82;47.80;98817.36;226953;1270;22537;-76
2023/08/24 14:37:27;;;;;;;4.50;4.10;;;;;;;29.93;47.74;98816.67;226858;1270;22554;-76
2023/08/24 14:42:29;;;;;;;4.10;3.80;;;;;;;29.95;47.74;98818.48;227000;1270;22533;-76
2023/08/24 14:47:31;;;;;;;3.90;3.30;;;;;;;29.91;47.54;98817.11;226942;1266;22806;-76
2023/08/24 14:52:34;;;;;;;4.70;3.50;;;;;;;29.84;47.34;98814.19;227037;1271;22547;-76
2023/08/24 14:57:36;;;;;;;4.10;3.70;;;;;;;29.71;47.19;98806.30;226970;1273;22745;-76
2023/08/24 15:02:38;;;;;;;6.00;4.00;;;;;;;29.59;47.05;98796.73;227033;1273;25210;-77
2023/08/24 15:07:40;;;;;;;6.60;3.80;;;;;;;29.38;47.35;98796.08;226965;1273;22531;-77
2023/08/24 15:12:43;;;;;;;5.60;3.70;;;;;;;29.39;47.63;98784.04;226933;1270;22541;-76
2023/08/24 15:17:45;;;;;;;4.00;3.70;;;;;;;29.24;47.42;98773.13;226847;1266;22534;-76
2023/08/24 15:22:48;;;;;;;5.50;3.60;;;;;;;29.07;47.72;98773.88;226903;1270;22545;-77
2023/08/24 15:27:50;;;;;;;4.10;3.50;;;;;;;28.89;47.51;98774.19;226889;1270;22537;-75
2023/08/24 15:32:52;;;;;;;4.10;3.80;;;;;;;28.56;48.06;98775.29;226856;1267;22537;-75
2023/08/24 15:37:54;;;;;;;4.20;3.80;;;;;;;28.26;48.25;98769.04;226876;1266;22559;-75
2023/08/24 15:42:56;;;;;;;4.20;3.70;;;;;;;28.00;48.68;98761.40;226812;1272;25522;-75
2023/08/24 15:48:00;;;;;;;3.80;3.50;;;;;;;27.93;49.32;98758.28;227018;1271;22540;-76
2023/08/24 15:53:03;;;;;;;4.00;3.70;;;;;;;27.97;49.30;98756.77;226885;1269;22536;-75
2023/08/24 15:58:05;;;;;;;4.20;3.80;;;;;;;27.97;49.09;98750.44;226858;1272;22489;-76
2023/08/24 16:03:07;;;;;;;5.80;4.80;;;;;;;27.86;49.52;98741.20;226970;1266;22596;-76
2023/08/24 16:08:09;;;;;;;6.00;4.20;;;;;;;27.75;49.81;98729.13;227013;1272;22530;-76
2023/08/24 16:13:11;;;;;;;5.40;3.80;;;;;;;27.58;50.31;98724.79;227059;1272;24870;-76
2023/08/24 16:18:13;;;;;;;4.90;3.70;;;;;;;27.42;50.44;98720.89;226934;1272;25955;-76
2023/08/24 16:23:15;;;;;;;4.00;3.60;;;;;;;27.28;51.06;98712.57;226890;1270;22588;-76
2023/08/24 16:28:17;;;;;;;4.10;3.70;;;;;;;27.17;51.57;98708.84;226806;1272;22553;-76
2023/08/24 16:33:19;;;;;;;4.50;3.50;;;;;;;27.06;51.83;98704.44;226817;1270;22637;-76
2023/08/24 16:38:21;;;;;;;4.50;3.50;;;;;;;26.93;51.78;98703.16;226865;1273;22547;-75
2023/08/24 16:43:23;;;;;;;5.20;3.70;;;;;;;26.80;51.85;98702.08;226724;1270;22553;-75
2023/08/24 16:48:25;;;;;;;6.70;3.90;;;;;;;26.71;52.13;98697.49;226711;1270;22541;-75
2023/08/24 16:53:26;;;;;;;6.30;4.10;;;;;;;26.59;52.45;98686.88;226730;1270;22540;-75
2023/08/24 16:58:29;;;;;;;5.20;4.10;;;;;;;26.42;53.11;98692.95;226784;1269;22544;-75
2023/08/24 17:03:32;;;;;;;6.30;4.10;;;;;;;26.22;53.42;98693.67;226796;1272;22530;-76
2023/08/24 17:08:34;;;;;;;9.00;4.30;;;;;;;26.04;53.93;98692.52;226698;1270;22545;-76
2023/08/24 17:13:36;;;;;;;5.40;3.90;;;;;;;25.85;54.31;98698.77;226700;1270;22548;-75
2023/08/24 17:18:38;;;;;;;5.80;4.40;;;;;;;25.67;54.63;98702.25;226769;1272;24384;-76
2023/08/24 17:23:40;;;;;;;4.40;4.00;;;;;;;25.52;55.10;98708.00;226767;1270;22554;-76
2023/08/24 17:28:42;;;;;;;6.10;4.30;;;;;;;25.36;55.21;98706.22;226673;1270;22552;-76
2023/08/24 17:33:44;;;;;;;6.00;4.50;;;;;;;25.16;55.61;98706.46;226760;1266;22554;-76
2023/08/24 17:38:45;;;;;;;5.50;4.50;;;;;;;24.96;56.06;98704.31;226857;1272;22533;-76
2023/08/24 17:43:57;;;;;;;5.70;5.20;;;;;;;24.75;56.73;98709.59;226784;1270;22540;-76
2023/08/24 17:48:59;;;;;;;6.80;4.60;;;;;;;24.53;57.09;98718.88;226748;1272;22531;-77
2023/08/24 17:54:01;;;;;;;6.10;5.10;;;;;;;24.29;57.55;98737.92;226807;1272;25328;-76
2023/08/24 17:59:03;;;;;;;8.20;5.40;;;;;;;24.07;58.06;98740.77;226752;1266;22541;-75
2023/08/24 18:04:05;;;;;;;7.30;5.20;;;;;;;23.83;58.59;98744.84;226824;1273;22766;-75
2023/08/24 18:09:07;;;;;;;7.50;5.70;;;;;;;23.62;59.04;98750.30;226792;1269;22532;-77
2023/08/24 18:14:09;;;;;;;6.70;5.50;;;;;;;23.43;59.35;98755.86;226935;1272;22530;-75
2023/08/24 18:19:11;;;;;;;6.30;5.20;;;;;;;23.24;59.81;98759.88;226952;1272;22535;-75
2023/08/24 18:24:13;;;;;;;6.60;5.30;;;;;;;23.07;60.17;98763.71;226856;1269;25316;-75
2023/08/24 18:29:15;;;;;;;6.60;4.80;;;;;;;22.89;60.51;98759.60;226858;1273;22547;-75
2023/08/24 18:34:17;;;;;;;7.40;6.60;;;;;;;22.71;60.90;98749.38;226751;1270;25230;-75
2023/08/24 18:39:19;;;;;;;14.20;8.40;;;;;;;22.52;61.22;98738.02;226792;1266;22541;-75
2023/08/24 18:44:20;;;;;;;11.10;9.40;;;;;;;22.36;61.67;98734.71;226841;1272;22539;-75
2023/08/24 18:49:22;;;;;;;13.30;9.80;;;;;;;22.23;62.12;98738.81;226838;1269;22534;-75
2023/08/24 18:54:24;;;;;;;10.20;8.00;;;;;;;22.09;62.28;98731.39;226892;1272;24198;-75
2023/08/24 18:59:26;;;;;;;8.10;7.30;;;;;;;21.94;62.67;98734.64;226838;1272;22562;-75
2023/08/24 19:04:28;;;;;;;9.90;6.20;;;;;;;21.80;63.18;98736.77;226796;1272;22554;-75
2023/08/24 19:09:30;;;;;;;8.30;6.80;;;;;;;21.66;63.59;98722.83;226793;1272;22548;-75
2023/08/24 19:14:35;;;;;;;7.10;5.90;;;;;;;21.55;64.01;98715.20;226795;1269;22535;-75
2023/08/24 19:19:37;;;;;;;8.90;6.90;;;;;;;21.47;64.56;98716.33;226802;1270;22891;-75
2023/08/24 19:24:39;;;;;;;8.90;7.20;;;;;;;21.35;64.76;98717.75;226820;1272;22774;-75
2023/08/24 19:29:41;;;;;;;8.20;7.40;;;;;;;21.22;65.30;98713.63;226696;1273;22557;-75
2023/08/24 19:34:45;;;;;;;10.90;7.60;;;;;;;21.10;65.71;98713.30;226783;1272;22637;-75
2023/08/24 19:39:47;;;;;;;8.80;7.30;;;;;;;21.00;66.33;98719.41;226732;1273;23046;-74
2023/08/24 19:44:49;;;;;;;10.80;7.40;;;;;;;20.90;66.78;98723.79;226724;1272;25229;-75
2023/08/24 19:49:51;;;;;;;8.80;7.60;;;;;;;20.78;67.08;98721.05;226920;1273;23274;-75
2023/08/24 19:54:52;;;;;;;8.30;7.50;;;;;;;20.68;67.57;98712.37;226831;1272;22540;-76
2023/08/24 19:59:54;;;;;;;10.30;8.20;;;;;;;20.62;68.08;98704.16;226746;1272;22533;-75
2023/08/24 20:04:56;;;;;;;9.00;7.90;;;;;;;20.57;68.36;98700.61;226762;1273;22545;-75
2023/08/24 20:09:58;;;;;;;8.70;7.90;;;;;;;20.50;68.88;98705.87;226724;1273;22541;-75
2023/08/24 20:15:00;;;;;;;11.90;8.50;;;;;;;20.40;69.05;98709.25;226675;1270;22654;-75
2023/08/24 20:20:03;;;;;;;11.70;8.90;;;;;;;20.28;69.46;98710.88;226685;1272;22534;-75
2023/08/24 20:25:05;;;;;;;14.20;9.30;;;;;;;20.16;69.77;98707.47;226723;1273;22631;-76
2023/08/24 20:30:09;;;;;;;9.80;8.70;;;;;;;20.03;70.20;98713.50;226668;1266;22538;-74
2023/08/24 20:35:11;;;;;;;9.60;8.60;;;;;;;19.93;70.45;98714.80;226718;1273;22747;-76
2023/08/24 20:40:13;;;;;;;10.40;8.50;;;;;;;19.84;70.80;98718.47;226729;1272;22506;-75
2023/08/24 20:45:15;;;;;;;12.70;9.40;;;;;;;19.75;71.05;98717.80;226768;1272;22557;-75
2023/08/24 20:50:17;;;;;;;10.50;9.30;;;;;;;19.66;71.39;98713.05;226705;1273;23007;-75
2023/08/24 20:55:19;;;;;;;10.70;9.30;;;;;;;19.58;71.67;98711.11;226730;1270;22609;-76
2023/08/24 21:00:21;;;;;;;12.00;9.70;;;;;;;19.51;71.96;98708.38;226636;1270;22545;-75
2023/08/24 21:05:25;;;;;;;13.30;9.70;;;;;;;19.43;72.19;98699.83;226822;1273;22525;-75
2023/08/24 21:10:31;;;;;;;11.10;9.90;;;;;;;19.37;72.25;98700.07;226707;1273;22534;-75
2023/08/24 21:15:33;;;;;;;11.40;9.50;;;;;;;19.30;72.46;98690.39;226713;1273;24218;-75
2023/08/24 21:20:36;;;;;;;12.10;10.20;;;;;;;19.25;72.56;98687.70;226679;1270;22617;-76
2023/08/24 21:25:37;;;;;;;12.70;10.20;;;;;;;19.19;72.57;98679.08;226689;1273;22915;-75
2023/08/24 21:30:39;;;;;;;12.20;10.90;;;;;;;19.12;72.84;98668.97;226759;1269;22531;-75
2023/08/24 21:35:41;;;;;;;12.90;10.10;;;;;;;19.06;73.05;98664.70;226679;1272;22522;-76
2023/08/24 21:40:43;;;;;;;14.20;10.00;;;;;;;19.03;73.37;98661.64;226698;1272;22585;-75
2023/08/24 21:45:56;;;;;;;12.60;10.20;;;;;;;19.01;73.51;98658.51;226644;1263;22594;-75
2023/08/24 21:50:59;;;;;;;15.50;11.60;;;;;;;18.98;73.61;98659.27;226740;1272;22485;-76
2023/08/24 21:56:01;;;;;;;11.60;10.40;;;;;;;18.94;73.81;98656.27;226792;1272;22566;-75
2023/08/24 22:01:05;;;;;;;12.80;10.10;;;;;;;18.89;74.01;98648.77;226791;1269;22536;-76
2023/08/24 22:06:06;;;;;;;12.80;11.00;;;;;;;18.83;74.35;98637.20;226767;1273;22535;-75
2023/08/24 22:11:09;;;;;;;12.50;10.60;;;;;;;18.78;74.40;98625.83;226851;1270;22656;-75
2023/08/24 22:16:11;;;;;;;12.40;10.30;;;;;;;18.74;74.63;98621.20;226655;1271;22567;-75
2023/08/24 22:21:13;;;;;;;12.10;10.80;;;;;;;18.67;74.89;98616.72;226725;1272;22555;-75
2023/08/24 22:26:16;;;;;;;12.40;10.80;;;;;;;18.59;75.05;98614.27;226666;1272;24228;-75
2023/08/24 22:31:18;;;;;;;11.60;9.70;;;;;;;18.48;75.20;98596.31;226701;1273;22564;-75
2023/08/24 22:36:20;;;;;;;14.40;10.90;;;;;;;18.38;75.41;98584.85;226727;1273;22529;-75
2023/08/24 22:41:22;;;;;;;13.40;11.10;;;;;;;18.27;75.53;98581.57;226678;1272;22627;-76
2023/08/24 22:46:24;;;;;;;12.80;10.10;;;;;;;18.16;75.77;98579.03;226611;1273;25315;-75
2023/08/24 22:51:27;;;;;;;11.80;10.10;;;;;;;18.09;76.19;98583.84;226708;1272;25225;-75
2023/08/24 22:56:29;;;;;;;12.60;10.90;;;;;;;18.01;76.37;98598.51;226732;1272;23434;-75
2023/08/24 23:01:35;;;;;;;16.00;10.80;;;;;;;17.94;76.67;98595.48;226709;1273;22556;-75
2023/08/24 23:07:04;;;;;;;14.20;11.90;;;;;;;17.88;77.06;98582.45;226761;1273;22525;-76
2023/08/24 23:12:06;;;;;;;13.60;10.80;;;;;;;17.83;77.18;98593.85;226730;1273;22490;-75
2023/08/24 23:17:08;;;;;;;12.80;11.00;;;;;;;17.76;77.13;98600.55;226732;1273;22524;-75